createdAt,value
2023-03-26T00:01:17.312Z,100.00
2023-03-26T00:03:53.498Z,100.00
2023-03-26T00:06:29.026Z,100.00
2023-03-26T00:08:57.556Z,100.00
2023-03-26T00:11:27.851Z,100.00
2023-03-26T00:13:57.726Z,100.00
2023-03-26T00:16:28.229Z,100.00
2023-03-26T00:18:55.741Z,100.00
2023-03-26T00:21:27.724Z,100.00
2023-03-26T00:23:56.266Z,100.00
2023-03-26T00:26:24.020Z,100.00
2023-03-26T00:28:50.997Z,100.00
2023-03-26T00:31:18.114Z,100.00
2023-03-26T00:33:44.828Z,100.00
2023-03-26T00:36:15.274Z,100.00
2023-03-26T00:38:43.195Z,100.00
2023-03-26T00:41:25.009Z,100.00
2023-03-26T00:43:57.494Z,100.00
2023-03-26T00:46:26.238Z,100.00
2023-03-26T00:48:53.652Z,100.00
2023-03-26T00:51:21.647Z,100.00
2023-03-26T00:53:49.993Z,100.00
2023-03-26T00:56:17.705Z,100.00
2023-03-26T00:58:46.060Z,100.00
2023-03-26T01:01:16.366Z,100.00
2023-03-26T01:03:53.628Z,100.00
2023-03-26T01:06:35.914Z,100.00
2023-03-26T01:09:18.753Z,100.00
2023-03-26T01:11:48.748Z,100.00
2023-03-26T01:14:19.187Z,100.00
2023-03-26T01:16:52.151Z,100.00
2023-03-26T01:19:31.646Z,100.00
2023-03-26T01:21:59.065Z,100.00
2023-03-26T01:24:26.256Z,100.00
2023-03-26T01:27:43.365Z,100.00
2023-03-26T01:30:17.151Z,100.00
2023-03-26T01:32:51.096Z,100.00
2023-03-26T01:35:30.772Z,100.00
2023-03-26T01:38:23.045Z,100.00
2023-03-26T01:41:19.636Z,100.00
2023-03-26T01:43:54.197Z,100.00
2023-03-26T01:46:23.818Z,100.00
2023-03-26T01:48:51.893Z,100.00
2023-03-26T01:51:44.967Z,100.00
2023-03-26T01:54:17.149Z,100.00
2023-03-26T01:57:05.952Z,100.00
2023-03-26T01:59:47.664Z,100.00
2023-03-26T02:02:26.817Z,100.00
2023-03-26T02:05:02.723Z,100.00
2023-03-26T02:07:51.047Z,100.00
2023-03-26T02:10:25.669Z,100.00
2023-03-26T02:12:53.164Z,100.00
2023-03-26T02:15:20.948Z,100.00
2023-03-26T02:17:49.250Z,100.00
2023-03-26T02:20:18.855Z,100.00
2023-03-26T02:22:47.256Z,100.00
2023-03-26T02:25:20.465Z,100.00
2023-03-26T02:27:50.332Z,100.00
2023-03-26T02:30:21.648Z,100.00
2023-03-26T02:32:52.336Z,100.00
2023-03-26T02:35:21.917Z,100.00
2023-03-26T02:37:52.668Z,100.00
2023-03-26T02:40:22.400Z,100.00
2023-03-26T02:42:50.544Z,100.00
2023-03-26T02:45:17.431Z,100.00
2023-03-26T02:48:20.415Z,100.00
2023-03-26T02:50:54.658Z,100.00
2023-03-26T02:53:41.278Z,100.00
2023-03-26T02:56:37.299Z,100.00
2023-03-26T02:59:17.841Z,100.00
2023-03-26T03:01:48.029Z,100.00
2023-03-26T03:04:17.962Z,100.00
2023-03-26T03:06:45.497Z,100.00
2023-03-26T03:09:12.955Z,100.00
2023-03-26T03:12:08.866Z,100.00
2023-03-26T03:14:35.780Z,100.00
2023-03-26T03:17:02.469Z,100.00
2023-03-26T03:19:30.946Z,100.00
2023-03-26T03:21:57.869Z,100.00
2023-03-26T03:24:24.568Z,100.00
2023-03-26T03:26:55.015Z,100.00
2023-03-26T03:29:33.216Z,100.00
2023-03-26T03:32:22.473Z,100.00
2023-03-26T03:34:51.502Z,100.00
2023-03-26T03:37:19.442Z,100.00
2023-03-26T03:39:54.213Z,100.00
2023-03-26T03:42:22.919Z,100.00
2023-03-26T03:44:54.623Z,100.00
2023-03-26T03:47:39.979Z,100.00
2023-03-26T03:50:07.860Z,100.00
2023-03-26T03:52:36.025Z,100.00
2023-03-26T03:55:02.967Z,100.00
2023-03-26T03:57:43.194Z,100.00
2023-03-26T04:00:15.552Z,100.00
2023-03-26T04:02:43.081Z,100.00
2023-03-26T04:05:11.714Z,100.00
2023-03-26T04:07:45.224Z,100.00
2023-03-26T04:10:27.018Z,100.00
2023-03-26T04:13:29.361Z,100.00
2023-03-26T04:16:10.398Z,100.00
2023-03-26T04:18:38.238Z,100.00
2023-03-26T04:21:12.711Z,100.00
2023-03-26T04:23:39.588Z,100.00
2023-03-26T04:26:20.185Z,100.00
2023-03-26T04:29:18.198Z,100.00
2023-03-26T04:31:47.193Z,100.00
2023-03-26T04:34:26.108Z,100.00
2023-03-26T04:37:02.924Z,100.00
2023-03-26T04:39:34.111Z,100.00
2023-03-26T04:42:37.771Z,100.00
2023-03-26T04:45:38.482Z,100.00
2023-03-26T04:48:07.315Z,100.00
2023-03-26T04:50:34.500Z,100.00
2023-03-26T04:53:02.422Z,100.00
2023-03-26T04:56:26.415Z,100.00
2023-03-26T04:59:26.275Z,100.00
2023-03-26T05:01:55.286Z,100.00
2023-03-26T05:04:29.467Z,100.00
2023-03-26T05:06:58.442Z,100.00
2023-03-26T05:09:38.286Z,100.00
2023-03-26T05:12:13.519Z,100.00
2023-03-26T05:15:03.582Z,100.00
2023-03-26T05:17:55.452Z,100.00
2023-03-26T05:20:36.917Z,100.00
2023-03-26T05:23:07.423Z,100.00
2023-03-26T05:25:41.248Z,100.00
2023-03-26T05:28:15.486Z,100.00
2023-03-26T05:30:53.831Z,100.00
2023-03-26T05:33:22.779Z,100.00
2023-03-26T05:36:13.313Z,100.00
2023-03-26T05:38:47.331Z,100.00
2023-03-26T05:41:18.366Z,100.00
2023-03-26T05:43:47.858Z,100.00
2023-03-26T05:46:27.259Z,100.00
2023-03-26T05:48:54.087Z,100.00
2023-03-26T05:51:23.458Z,100.00
2023-03-26T05:54:00.316Z,100.00
2023-03-26T05:56:32.759Z,100.00
2023-03-26T05:59:25.658Z,100.00
2023-03-26T06:02:12.531Z,100.00
2023-03-26T06:04:40.856Z,100.00
2023-03-26T06:07:27.115Z,100.00
2023-03-26T06:10:14.600Z,100.00
2023-03-26T06:12:45.764Z,100.00
2023-03-26T06:15:12.912Z,100.00
2023-03-26T06:17:59.814Z,100.00
2023-03-26T06:20:47.980Z,100.00
2023-03-26T06:23:28.198Z,100.00
2023-03-26T06:26:15.515Z,100.00
2023-03-26T06:29:14.776Z,100.00
2023-03-26T06:31:58.124Z,100.00
2023-03-26T06:34:35.867Z,100.00
2023-03-26T06:37:02.546Z,100.00
2023-03-26T06:39:30.219Z,100.00
2023-03-26T06:42:17.413Z,100.00
2023-03-26T06:44:57.353Z,100.00
2023-03-26T06:47:47.456Z,100.00
2023-03-26T06:50:43.857Z,100.00
2023-03-26T06:53:26.648Z,100.00
2023-03-26T06:56:08.883Z,100.00
2023-03-26T06:59:14.104Z,100.00
2023-03-26T07:01:59.390Z,100.00
2023-03-26T07:04:44.466Z,100.00
2023-03-26T07:07:29.414Z,100.00
2023-03-26T07:10:15.102Z,100.00
2023-03-26T07:13:11.084Z,100.00
2023-03-26T07:15:56.446Z,100.00
2023-03-26T07:18:23.106Z,100.00
2023-03-26T07:20:52.489Z,100.00
2023-03-26T07:23:21.352Z,100.00
2023-03-26T07:25:57.240Z,100.00
2023-03-26T07:29:04.436Z,100.00
2023-03-26T07:32:18.876Z,100.00
2023-03-26T07:35:23.413Z,100.00
2023-03-26T07:38:41.254Z,100.00
2023-03-26T07:41:51.083Z,100.00
2023-03-26T07:45:03.239Z,100.00
2023-03-26T07:47:53.881Z,100.00
2023-03-26T07:50:31.561Z,100.00
2023-03-26T07:53:21.624Z,100.00
2023-03-26T07:56:15.986Z,100.00
2023-03-26T07:59:19.368Z,100.00
2023-03-26T08:02:34.464Z,100.00
2023-03-26T08:05:57.917Z,100.00
2023-03-26T08:09:06.769Z,100.00
2023-03-26T08:11:54.228Z,100.00
2023-03-26T08:14:36.420Z,100.00
2023-03-26T08:17:14.161Z,100.00
2023-03-26T08:19:49.106Z,100.00
2023-03-26T08:22:56.644Z,99.71
2023-03-26T08:25:35.125Z,98.16
2023-03-26T08:28:27.851Z,100.00
2023-03-26T08:30:55.221Z,100.00
2023-03-26T08:33:25.907Z,98.25
2023-03-26T08:35:52.947Z,95.48
2023-03-26T08:38:20.953Z,99.07
2023-03-26T08:43:51.566Z,97.44
2023-03-26T08:46:38.868Z,93.91
2023-03-26T08:49:46.208Z,94.67
2023-03-26T08:53:03.229Z,90.75
2023-03-26T08:55:38.240Z,85.12
2023-03-26T08:58:33.213Z,82.25
2023-03-26T09:01:30.966Z,81.76
2023-03-26T09:04:40.335Z,83.08
2023-03-26T09:07:40.858Z,83.89
2023-03-26T09:10:07.455Z,85.09
2023-03-26T09:13:29.413Z,81.68
2023-03-26T09:16:10.033Z,72.93
2023-03-26T09:19:02.396Z,72.20
2023-03-26T09:21:44.040Z,75.81
2023-03-26T09:24:24.341Z,74.09
2023-03-26T09:26:59.839Z,71.00
2023-03-26T09:29:54.316Z,70.80
2023-03-26T09:32:59.774Z,68.42
2023-03-26T09:36:08.737Z,70.98
2023-03-26T09:38:57.548Z,67.09
2023-03-26T09:41:48.205Z,68.73
2023-03-26T09:44:44.222Z,66.15
2023-03-26T09:47:19.819Z,67.61
2023-03-26T09:50:14.214Z,64.44
2023-03-26T09:53:07.566Z,63.44
2023-03-26T09:55:51.100Z,63.31
2023-03-26T09:58:41.340Z,62.55
2023-03-26T10:01:25.211Z,67.13
2023-03-26T10:04:03.891Z,60.55
2023-03-26T10:06:37.177Z,61.81
2023-03-26T10:09:28.428Z,65.11
2023-03-26T10:12:20.604Z,71.57
2023-03-26T10:15:04.375Z,62.84
2023-03-26T10:17:46.717Z,65.38
2023-03-26T10:20:36.225Z,59.96
2023-03-26T10:23:18.561Z,61.89
2023-03-26T10:25:47.845Z,63.66
2023-03-26T10:28:20.288Z,66.43
2023-03-26T10:31:29.093Z,67.22
2023-03-26T10:34:28.728Z,68.10
2023-03-26T10:37:32.486Z,68.95
2023-03-26T10:40:32.458Z,63.90
2023-03-26T10:43:31.382Z,64.42
2023-03-26T10:46:24.921Z,73.42
2023-03-26T10:49:16.205Z,76.72
2023-03-26T10:51:50.452Z,71.33
2023-03-26T10:54:28.902Z,69.18
2023-03-26T10:56:56.670Z,64.36
2023-03-26T10:59:27.070Z,59.32
2023-03-26T11:02:01.337Z,57.62
2023-03-26T11:04:46.373Z,55.80
2023-03-26T11:07:31.694Z,60.83
2023-03-26T11:10:11.879Z,60.39
2023-03-26T11:13:06.322Z,63.04
2023-03-26T11:15:35.897Z,62.19
2023-03-26T11:18:18.922Z,66.93
2023-03-26T11:20:54.770Z,66.76
2023-03-26T11:24:06.049Z,64.63
2023-03-26T11:27:14.902Z,58.90
2023-03-26T11:30:35.682Z,59.93
2023-03-26T11:33:06.826Z,61.87
2023-03-26T11:35:42.714Z,62.34
2023-03-26T11:38:23.386Z,58.14
2023-03-26T11:40:54.339Z,56.09
2023-03-26T11:43:39.859Z,60.21
2023-03-26T11:46:12.213Z,55.84
2023-03-26T11:48:45.059Z,56.15
2023-03-26T11:51:37.658Z,60.30
2023-03-26T11:54:07.843Z,59.42
2023-03-26T11:57:04.389Z,59.30
2023-03-26T11:59:56.511Z,61.61
2023-03-26T12:02:34.043Z,64.17
2023-03-26T12:05:24.968Z,57.63
2023-03-26T12:07:59.854Z,61.00
2023-03-26T12:10:37.713Z,60.11
2023-03-26T12:13:21.215Z,58.49
2023-03-26T12:15:48.215Z,58.38
2023-03-26T12:18:26.393Z,60.75
2023-03-26T12:21:22.678Z,68.82
2023-03-26T12:24:02.529Z,65.21
2023-03-26T12:26:41.690Z,58.91
2023-03-26T12:29:10.454Z,60.54
2023-03-26T12:31:46.890Z,61.01
2023-03-26T12:34:19.397Z,59.06
2023-03-26T12:36:52.330Z,62.24
2023-03-26T12:40:09.973Z,65.25
2023-03-26T12:44:46.779Z,63.23
2023-03-26T12:45:21.748Z,57.89
2023-03-26T12:47:58.926Z,56.06
2023-03-26T12:50:59.261Z,57.70
2023-03-26T12:53:50.536Z,57.52
2023-03-26T12:56:37.005Z,54.30
2023-03-26T12:59:09.419Z,53.31
2023-03-26T13:01:54.633Z,54.77
2023-03-26T13:04:24.240Z,57.35
2023-03-26T13:07:06.535Z,59.95
2023-03-26T13:10:16.106Z,59.98
2023-03-26T13:13:05.080Z,61.53
2023-03-26T13:15:37.010Z,58.33
2023-03-26T13:18:23.261Z,55.81
2023-03-26T13:21:00.570Z,57.02
2023-03-26T13:23:46.045Z,54.49
2023-03-26T13:26:12.621Z,58.41
2023-03-26T13:28:48.813Z,57.93
2023-03-26T13:31:21.829Z,59.10
2023-03-26T13:34:34.047Z,57.71
2023-03-26T13:37:04.456Z,54.67
2023-03-26T13:39:51.671Z,57.17
2023-03-26T13:42:21.827Z,58.36
2023-03-26T13:45:04.532Z,58.66
2023-03-26T13:47:36.773Z,57.11
2023-03-26T13:50:09.853Z,56.05
2023-03-26T13:52:55.987Z,60.24
2023-03-26T13:55:43.491Z,60.65
2023-03-26T13:58:34.636Z,60.11
2023-03-26T14:01:18.246Z,58.09
2023-03-26T14:03:58.048Z,58.06
2023-03-26T14:06:57.574Z,61.29
2023-03-26T14:09:31.808Z,63.18
2023-03-26T14:12:32.109Z,64.61
2023-03-26T14:15:05.852Z,64.15
2023-03-26T14:17:47.452Z,60.19
2023-03-26T14:20:25.549Z,59.35
2023-03-26T14:23:14.697Z,60.09
2023-03-26T14:26:06.751Z,63.26
2023-03-26T14:28:55.117Z,61.66
2023-03-26T14:31:34.230Z,59.31
2023-03-26T14:34:34.309Z,61.55
2023-03-26T14:37:06.087Z,60.72
2023-03-26T14:39:44.171Z,63.54
2023-03-26T14:42:31.952Z,66.60
2023-03-26T14:45:23.413Z,64.94
2023-03-26T14:48:17.667Z,66.24
2023-03-26T14:51:01.400Z,66.20
2023-03-26T14:53:33.446Z,66.16
2023-03-26T14:56:15.678Z,66.67
2023-03-26T14:59:03.508Z,67.29
2023-03-26T15:02:07.410Z,65.33
2023-03-26T15:05:08.313Z,63.97
2023-03-26T15:08:05.765Z,66.62
2023-03-26T15:10:45.354Z,64.35
2023-03-26T15:13:43.085Z,63.99
2023-03-26T15:16:21.030Z,64.60
2023-03-26T15:19:09.417Z,62.38
2023-03-26T15:21:45.231Z,64.84
2023-03-26T15:24:17.907Z,65.20
2023-03-26T15:26:50.117Z,63.06
2023-03-26T15:29:45.798Z,62.15
2023-03-26T15:32:45.773Z,63.61
2023-03-26T15:35:21.371Z,62.31
2023-03-26T15:37:54.264Z,61.26
2023-03-26T15:40:43.000Z,59.18
2023-03-26T15:43:12.949Z,60.70
2023-03-26T15:46:07.395Z,63.61
2023-03-26T15:49:00.117Z,61.08
2023-03-26T15:52:03.834Z,60.94
2023-03-26T15:54:37.065Z,61.55
2023-03-26T15:57:16.654Z,62.87
2023-03-26T16:00:22.571Z,65.41
2023-03-26T16:02:55.353Z,65.44
2023-03-26T16:05:40.057Z,65.65
2023-03-26T16:08:14.762Z,67.94
2023-03-26T16:11:00.333Z,71.39
2023-03-26T16:13:34.855Z,70.17
2023-03-26T16:16:04.279Z,68.26
2023-03-26T16:18:37.729Z,68.80
2023-03-26T16:21:31.466Z,70.18
2023-03-26T16:24:02.166Z,73.94
2023-03-26T16:26:31.721Z,75.74
2023-03-26T16:29:28.002Z,73.08
2023-03-26T16:32:09.808Z,73.97
2023-03-26T16:34:59.711Z,76.97
2023-03-26T16:37:33.645Z,77.12
2023-03-26T16:40:18.683Z,77.93
2023-03-26T16:43:16.359Z,79.22
2023-03-26T16:46:20.384Z,77.04
2023-03-26T16:48:47.048Z,77.55
2023-03-26T16:51:42.237Z,80.29
2023-03-26T16:54:47.886Z,77.72
2023-03-26T16:57:23.753Z,77.60
2023-03-26T17:00:24.575Z,76.50
2023-03-26T17:03:37.664Z,81.17
2023-03-26T17:06:45.708Z,81.52
2023-03-26T17:09:24.706Z,80.86
2023-03-26T17:12:02.763Z,82.62
2023-03-26T17:15:16.404Z,84.27
2023-03-26T17:18:07.021Z,82.58
2023-03-26T17:20:39.452Z,82.84
2023-03-26T17:23:14.613Z,82.59
2023-03-26T17:25:54.345Z,82.60
2023-03-26T17:28:51.577Z,85.36
2023-03-26T17:31:56.933Z,85.19
2023-03-26T17:34:32.620Z,82.45
2023-03-26T17:37:00.922Z,83.52
2023-03-26T17:39:39.703Z,83.11
2023-03-26T17:42:25.632Z,84.39
2023-03-26T17:45:01.227Z,87.37
2023-03-26T17:47:42.240Z,84.54
2023-03-26T17:50:19.693Z,83.07
2023-03-26T17:52:55.212Z,84.48
2023-03-26T17:55:31.316Z,86.41
2023-03-26T17:58:19.236Z,87.11
2023-03-26T18:00:51.052Z,91.25
2023-03-26T18:03:30.844Z,91.46
2023-03-26T18:06:07.232Z,93.65
2023-03-26T18:08:41.488Z,92.42
2023-03-26T18:11:17.003Z,94.52
2023-03-26T18:13:52.548Z,93.08
2023-03-26T18:16:39.084Z,98.32
2023-03-26T18:19:22.025Z,97.34
2023-03-26T18:21:51.945Z,98.57
2023-03-26T18:24:27.607Z,97.16
2023-03-26T18:26:58.498Z,100.00
2023-03-26T18:29:35.272Z,98.81
2023-03-26T18:32:11.447Z,97.48
2023-03-26T18:34:41.451Z,98.56
2023-03-26T18:37:17.661Z,97.55
2023-03-26T18:39:57.617Z,98.10
2023-03-26T18:42:25.335Z,98.08
2023-03-26T18:44:53.934Z,98.31
2023-03-26T18:47:29.424Z,96.19
2023-03-26T18:49:58.127Z,95.34
2023-03-26T18:52:27.914Z,95.67
2023-03-26T18:54:56.698Z,95.40
2023-03-26T18:57:26.114Z,94.63
2023-03-26T18:59:55.866Z,94.93
2023-03-26T19:02:24.787Z,94.28
2023-03-26T19:04:54.324Z,92.83
2023-03-26T19:07:26.492Z,94.43
2023-03-26T19:09:56.377Z,93.87
2023-03-26T19:12:28.876Z,93.70
2023-03-26T19:15:02.317Z,91.47
2023-03-26T19:17:34.443Z,91.36
2023-03-26T19:20:01.669Z,87.82
2023-03-26T19:22:30.427Z,90.32
2023-03-26T19:25:01.281Z,86.73
2023-03-26T19:27:28.330Z,86.55
2023-03-26T19:29:55.190Z,83.70
2023-03-26T19:32:32.387Z,85.67
2023-03-26T19:35:01.199Z,81.06
2023-03-26T19:37:30.714Z,82.96
2023-03-26T19:40:07.156Z,83.93
2023-03-26T19:42:42.884Z,79.52
2023-03-26T19:45:17.765Z,76.33
2023-03-26T19:47:50.409Z,77.92
2023-03-26T19:50:29.345Z,77.38
2023-03-26T19:53:17.013Z,76.09
2023-03-26T19:55:58.969Z,73.26
2023-03-26T19:58:26.498Z,70.84
2023-03-26T20:00:55.649Z,71.97
2023-03-26T20:03:29.227Z,68.87
2023-03-26T20:05:56.390Z,68.07
2023-03-26T20:08:27.069Z,64.73
2023-03-26T20:10:56.554Z,65.34
2023-03-26T20:13:23.373Z,66.64
2023-03-26T20:16:07.515Z,62.32
2023-03-26T20:18:37.628Z,64.65
2023-03-26T20:21:12.280Z,64.05
2023-03-26T20:23:40.732Z,61.53
2023-03-26T20:26:12.082Z,59.69
2023-03-26T20:28:47.492Z,60.76
2023-03-26T20:31:26.235Z,61.88
2023-03-26T20:33:54.207Z,61.94
2023-03-26T20:36:34.008Z,59.81
2023-03-26T20:39:05.974Z,59.74
2023-03-26T20:45:29.825Z,57.93
2023-03-26T20:48:00.451Z,59.66
2023-03-26T20:50:50.781Z,58.17
2023-03-26T20:53:33.328Z,57.56
2023-03-26T20:56:33.229Z,58.60
2023-03-26T20:59:37.819Z,61.12
2023-03-26T21:02:15.180Z,60.49
2023-03-26T21:04:55.736Z,58.95
2023-03-26T21:08:04.556Z,59.61
2023-03-26T21:18:23.403Z,58.94
2023-03-26T21:28:42.435Z,60.39
2023-03-26T21:34:39.666Z,60.16
2023-03-26T21:37:31.245Z,62.04
2023-03-26T21:40:19.033Z,63.54
2023-03-26T21:43:22.200Z,63.96
2023-03-26T21:46:07.752Z,65.42
2023-03-26T21:49:04.348Z,67.84
2023-03-26T21:51:41.262Z,64.73
2023-03-26T21:54:24.516Z,66.23
2023-03-26T21:57:10.622Z,67.46
2023-03-26T22:00:12.144Z,70.47
2023-03-26T22:02:42.897Z,71.23
2023-03-26T22:05:23.161Z,72.38
2023-03-26T22:08:14.505Z,69.85
2023-03-26T22:10:43.943Z,70.82
2023-03-26T22:13:18.961Z,72.94
2023-03-26T22:18:34.674Z,76.42
2023-03-26T22:21:04.179Z,76.69
2023-03-26T22:23:45.985Z,74.53
2023-03-26T22:26:15.640Z,76.18
2023-03-26T22:28:49.342Z,75.86
2023-03-26T22:31:53.926Z,76.02
2023-03-26T22:34:36.770Z,78.84
2023-03-26T22:41:58.606Z,79.30
2023-03-26T22:44:23.540Z,79.58
2023-03-26T22:46:54.426Z,79.92
2023-03-26T22:49:21.374Z,82.05
2023-03-26T22:51:48.241Z,81.25
2023-03-26T22:54:14.964Z,80.38
2023-03-26T22:56:41.712Z,80.14
2023-03-26T22:59:08.688Z,81.19
2023-03-26T23:01:36.142Z,83.19
2023-03-26T23:04:03.094Z,81.86
2023-03-26T23:06:29.925Z,83.06
2023-03-26T23:08:57.067Z,86.24
2023-03-26T23:11:23.980Z,85.88
2023-03-26T23:13:51.272Z,84.97
2023-03-26T23:16:19.179Z,88.12
2023-03-26T23:18:46.112Z,88.77
2023-03-26T23:21:15.213Z,88.67
2023-03-26T23:23:42.232Z,90.43
2023-03-26T23:26:08.913Z,90.14
2023-03-26T23:28:35.950Z,90.25
2023-03-26T23:31:05.720Z,91.65
2023-03-26T23:33:35.400Z,89.40
2023-03-26T23:36:08.736Z,91.69
2023-03-26T23:38:43.591Z,91.17
2023-03-26T23:41:14.840Z,90.57
2023-03-26T23:43:54.807Z,93.43
2023-03-26T23:46:33.107Z,93.11
2023-03-26T23:49:02.333Z,94.48
2023-03-26T23:51:32.733Z,96.49
2023-03-26T23:54:00.530Z,96.38
2023-03-26T23:56:30.301Z,94.08
2023-03-26T23:58:57.375Z,95.84
